<?xml version="1.0" encoding="UTF-8" standalone="no" ?>
<gpx xmlns="http://www.topografix.com/GPX/1/1" xmlns:xsi="http://www.w3.org/2001/XMLSchema-instance" xsi:schemaLocation="http://www.topografix.com/GPX/1/1 http://www.topografix.com/GPX/1/1/gpx.xsd" version="1.1" creator="VisuGPX - https://www.visugpx.com">
  <metadata>
    <name>Parcours fait le 12/03/2017</name>
    <desc><![CDATA[Parcours fait ce matin,dimanche 13/03/2017, à tester cet après midi !!!]]></desc>
  </metadata>
  <trk>
    <name><![CDATA[OR-7136395--Chazelles-sur-Lyon:Parcours fait le 12/03/2017]]></name>
    <trkseg>
      <trkpt lat="45.63763" lon="4.38767">
        <ele>611</ele>
        <time>2017-03-12T10:42:52Z</time>
      </trkpt>
      <trkpt lat="45.63675" lon="4.38823">
        <ele>612</ele>
        <time>2017-03-12T10:44:52Z</time>
      </trkpt>
      <trkpt lat="45.63528" lon="4.38024">
        <ele>594</ele>
        <time>2017-03-12T10:46:52Z</time>
      </trkpt>
      <trkpt lat="45.63474" lon="4.37359">
        <ele>586</ele>
        <time>2017-03-12T10:48:52Z</time>
      </trkpt>
      <trkpt lat="45.63432" lon="4.37162">
        <ele>579</ele>
        <time>2017-03-12T10:50:52Z</time>
      </trkpt>
      <trkpt lat="45.63543" lon="4.36703">
        <ele>572</ele>
        <time>2017-03-12T10:52:52Z</time>
      </trkpt>
      <trkpt lat="45.63976" lon="4.36368">
        <ele>577</ele>
        <time>2017-03-12T10:54:52Z</time>
      </trkpt>
      <trkpt lat="45.64207" lon="4.36321">
        <ele>575</ele>
        <time>2017-03-12T10:56:52Z</time>
      </trkpt>
      <trkpt lat="45.64282" lon="4.36415">
        <ele>566</ele>
        <time>2017-03-12T10:58:52Z</time>
      </trkpt>
      <trkpt lat="45.64375" lon="4.36436">
        <ele>550</ele>
        <time>2017-03-12T11:00:52Z</time>
      </trkpt>
      <trkpt lat="45.64504" lon="4.36342">
        <ele>538</ele>
        <time>2017-03-12T11:02:52Z</time>
      </trkpt>
      <trkpt lat="45.64558" lon="4.36406">
        <ele>522</ele>
        <time>2017-03-12T11:04:52Z</time>
      </trkpt>
      <trkpt lat="45.64624" lon="4.36312">
        <ele>520</ele>
        <time>2017-03-12T11:06:52Z</time>
      </trkpt>
      <trkpt lat="45.64645" lon="4.36462">
        <ele>503</ele>
        <time>2017-03-12T11:08:52Z</time>
      </trkpt>
      <trkpt lat="45.64654" lon="4.36162">
        <ele>510</ele>
        <time>2017-03-12T11:10:52Z</time>
      </trkpt>
      <trkpt lat="45.64495" lon="4.35479">
        <ele>485</ele>
        <time>2017-03-12T11:12:52Z</time>
      </trkpt>
      <trkpt lat="45.64447" lon="4.35183">
        <ele>488</ele>
        <time>2017-03-12T11:14:52Z</time>
      </trkpt>
      <trkpt lat="45.64456" lon="4.34587">
        <ele>473</ele>
        <time>2017-03-12T11:16:52Z</time>
      </trkpt>
      <trkpt lat="45.64375" lon="4.34278">
        <ele>477</ele>
        <time>2017-03-12T11:18:52Z</time>
      </trkpt>
      <trkpt lat="45.64315" lon="4.33939">
        <ele>462</ele>
        <time>2017-03-12T11:20:52Z</time>
      </trkpt>
      <trkpt lat="45.64321" lon="4.33664">
        <ele>471</ele>
        <time>2017-03-12T11:22:52Z</time>
      </trkpt>
      <trkpt lat="45.64402" lon="4.33424">
        <ele>461</ele>
        <time>2017-03-12T11:24:52Z</time>
      </trkpt>
      <trkpt lat="45.64439" lon="4.33177">
        <ele>464</ele>
        <time>2017-03-12T11:26:52Z</time>
      </trkpt>
      <trkpt lat="45.64415" lon="4.32885">
        <ele>457</ele>
        <time>2017-03-12T11:28:52Z</time>
      </trkpt>
      <trkpt lat="45.64474" lon="4.3248">
        <ele>448</ele>
        <time>2017-03-12T11:30:52Z</time>
      </trkpt>
      <trkpt lat="45.64501" lon="4.32739">
        <ele>452</ele>
        <time>2017-03-12T11:32:52Z</time>
      </trkpt>
      <trkpt lat="45.64537" lon="4.32692">
        <ele>463</ele>
        <time>2017-03-12T11:34:52Z</time>
      </trkpt>
      <trkpt lat="45.64517" lon="4.32812">
        <ele>463</ele>
        <time>2017-03-12T11:36:52Z</time>
      </trkpt>
      <trkpt lat="45.64528" lon="4.32911">
        <ele>468</ele>
        <time>2017-03-12T11:38:52Z</time>
      </trkpt>
      <trkpt lat="45.64592" lon="4.33029">
        <ele>479</ele>
        <time>2017-03-12T11:40:52Z</time>
      </trkpt>
      <trkpt lat="45.64591" lon="4.32945">
        <ele>490</ele>
        <time>2017-03-12T11:42:52Z</time>
      </trkpt>
      <trkpt lat="45.64615" lon="4.33008">
        <ele>489</ele>
        <time>2017-03-12T11:44:52Z</time>
      </trkpt>
      <trkpt lat="45.64732" lon="4.3305">
        <ele>515</ele>
        <time>2017-03-12T11:46:52Z</time>
      </trkpt>
      <trkpt lat="45.64756" lon="4.33078">
        <ele>515</ele>
        <time>2017-03-12T11:48:52Z</time>
      </trkpt>
      <trkpt lat="45.64778" lon="4.33038">
        <ele>528</ele>
        <time>2017-03-12T11:50:52Z</time>
      </trkpt>
      <trkpt lat="45.64729" lon="4.32969">
        <ele>528</ele>
        <time>2017-03-12T11:52:52Z</time>
      </trkpt>
      <trkpt lat="45.64802" lon="4.32832">
        <ele>548</ele>
        <time>2017-03-12T11:54:52Z</time>
      </trkpt>
      <trkpt lat="45.64822" lon="4.32866">
        <ele>553</ele>
        <time>2017-03-12T11:56:52Z</time>
      </trkpt>
      <trkpt lat="45.64844" lon="4.32866">
        <ele>557</ele>
        <time>2017-03-12T11:58:52Z</time>
      </trkpt>
      <trkpt lat="45.64939" lon="4.32784">
        <ele>575</ele>
        <time>2017-03-12T12:00:52Z</time>
      </trkpt>
      <trkpt lat="45.64909" lon="4.32675">
        <ele>575</ele>
        <time>2017-03-12T12:02:52Z</time>
      </trkpt>
      <trkpt lat="45.6497" lon="4.32589">
        <ele>581</ele>
        <time>2017-03-12T12:04:52Z</time>
      </trkpt>
      <trkpt lat="45.65012" lon="4.32623">
        <ele>588</ele>
        <time>2017-03-12T12:06:52Z</time>
      </trkpt>
      <trkpt lat="45.65084" lon="4.32915">
        <ele>594</ele>
        <time>2017-03-12T12:08:52Z</time>
      </trkpt>
      <trkpt lat="45.65179" lon="4.33115">
        <ele>583</ele>
        <time>2017-03-12T12:10:52Z</time>
      </trkpt>
      <trkpt lat="45.65419" lon="4.33209">
        <ele>573</ele>
        <time>2017-03-12T12:12:52Z</time>
      </trkpt>
      <trkpt lat="45.65593" lon="4.33488">
        <ele>591</ele>
        <time>2017-03-12T12:14:52Z</time>
      </trkpt>
      <trkpt lat="45.65689" lon="4.33514">
        <ele>598</ele>
        <time>2017-03-12T12:16:52Z</time>
      </trkpt>
      <trkpt lat="45.65713" lon="4.33668">
        <ele>599</ele>
        <time>2017-03-12T12:18:52Z</time>
      </trkpt>
      <trkpt lat="45.65749" lon="4.3381">
        <ele>607</ele>
        <time>2017-03-12T12:20:52Z</time>
      </trkpt>
      <trkpt lat="45.65746" lon="4.33909">
        <ele>607</ele>
        <time>2017-03-12T12:22:52Z</time>
      </trkpt>
      <trkpt lat="45.66105" lon="4.33909">
        <ele>613</ele>
        <time>2017-03-12T12:24:52Z</time>
      </trkpt>
      <trkpt lat="45.66297" lon="4.33793">
        <ele>610</ele>
        <time>2017-03-12T12:26:52Z</time>
      </trkpt>
      <trkpt lat="45.66402" lon="4.3372">
        <ele>600</ele>
        <time>2017-03-12T12:28:52Z</time>
      </trkpt>
      <trkpt lat="45.66486" lon="4.3375">
        <ele>586</ele>
        <time>2017-03-12T12:30:52Z</time>
      </trkpt>
      <trkpt lat="45.66546" lon="4.33634">
        <ele>566</ele>
        <time>2017-03-12T12:32:52Z</time>
      </trkpt>
      <trkpt lat="45.66543" lon="4.33355">
        <ele>559</ele>
        <time>2017-03-12T12:34:52Z</time>
      </trkpt>
      <trkpt lat="45.6666" lon="4.33424">
        <ele>552</ele>
        <time>2017-03-12T12:36:52Z</time>
      </trkpt>
      <trkpt lat="45.66642" lon="4.33518">
        <ele>548</ele>
        <time>2017-03-12T12:38:52Z</time>
      </trkpt>
      <trkpt lat="45.66663" lon="4.33677">
        <ele>536</ele>
        <time>2017-03-12T12:40:52Z</time>
      </trkpt>
      <trkpt lat="45.66741" lon="4.33677">
        <ele>537</ele>
        <time>2017-03-12T12:42:52Z</time>
      </trkpt>
      <trkpt lat="45.66785" lon="4.33765">
        <ele>547</ele>
        <time>2017-03-12T12:44:52Z</time>
      </trkpt>
      <trkpt lat="45.6687" lon="4.33784">
        <ele>549</ele>
        <time>2017-03-12T12:46:52Z</time>
      </trkpt>
      <trkpt lat="45.66861" lon="4.33722">
        <ele>547</ele>
        <time>2017-03-12T12:48:52Z</time>
      </trkpt>
      <trkpt lat="45.66887" lon="4.33617">
        <ele>535</ele>
        <time>2017-03-12T12:50:52Z</time>
      </trkpt>
      <trkpt lat="45.66872" lon="4.33488">
        <ele>521</ele>
        <time>2017-03-12T12:52:52Z</time>
      </trkpt>
      <trkpt lat="45.66906" lon="4.33325">
        <ele>507</ele>
        <time>2017-03-12T12:54:52Z</time>
      </trkpt>
      <trkpt lat="45.66909" lon="4.33089">
        <ele>501</ele>
        <time>2017-03-12T12:56:52Z</time>
      </trkpt>
      <trkpt lat="45.6693" lon="4.33029">
        <ele>499</ele>
        <time>2017-03-12T12:58:52Z</time>
      </trkpt>
      <trkpt lat="45.66993" lon="4.33136">
        <ele>521</ele>
        <time>2017-03-12T13:00:52Z</time>
      </trkpt>
      <trkpt lat="45.67074" lon="4.33364">
        <ele>543</ele>
        <time>2017-03-12T13:02:52Z</time>
      </trkpt>
      <trkpt lat="45.67191" lon="4.33458">
        <ele>551</ele>
        <time>2017-03-12T13:04:52Z</time>
      </trkpt>
      <trkpt lat="45.67269" lon="4.33643">
        <ele>560</ele>
        <time>2017-03-12T13:06:52Z</time>
      </trkpt>
      <trkpt lat="45.67389" lon="4.33943">
        <ele>570</ele>
        <time>2017-03-12T13:08:52Z</time>
      </trkpt>
      <trkpt lat="45.67404" lon="4.34119">
        <ele>575</ele>
        <time>2017-03-12T13:10:52Z</time>
      </trkpt>
      <trkpt lat="45.67404" lon="4.34316">
        <ele>585</ele>
        <time>2017-03-12T13:12:52Z</time>
      </trkpt>
      <trkpt lat="45.67476" lon="4.3481">
        <ele>596</ele>
        <time>2017-03-12T13:14:52Z</time>
      </trkpt>
      <trkpt lat="45.67452" lon="4.35243">
        <ele>555</ele>
        <time>2017-03-12T13:16:52Z</time>
      </trkpt>
      <trkpt lat="45.67437" lon="4.35415">
        <ele>563</ele>
        <time>2017-03-12T13:18:52Z</time>
      </trkpt>
      <trkpt lat="45.67566" lon="4.35432">
        <ele>558</ele>
        <time>2017-03-12T13:20:52Z</time>
      </trkpt>
      <trkpt lat="45.67641" lon="4.35634">
        <ele>575</ele>
        <time>2017-03-12T13:22:52Z</time>
      </trkpt>
      <trkpt lat="45.67368" lon="4.35694">
        <ele>591</ele>
        <time>2017-03-12T13:24:52Z</time>
      </trkpt>
      <trkpt lat="45.6717" lon="4.35694">
        <ele>612</ele>
        <time>2017-03-12T13:26:52Z</time>
      </trkpt>
      <trkpt lat="45.66975" lon="4.35844">
        <ele>644</ele>
        <time>2017-03-12T13:28:52Z</time>
      </trkpt>
      <trkpt lat="45.67071" lon="4.36153">
        <ele>632</ele>
        <time>2017-03-12T13:30:52Z</time>
      </trkpt>
      <trkpt lat="45.67122" lon="4.36582">
        <ele>615</ele>
        <time>2017-03-12T13:32:52Z</time>
      </trkpt>
      <trkpt lat="45.672" lon="4.37007">
        <ele>608</ele>
        <time>2017-03-12T13:34:52Z</time>
      </trkpt>
      <trkpt lat="45.67203" lon="4.37093">
        <ele>610</ele>
        <time>2017-03-12T13:36:52Z</time>
      </trkpt>
      <trkpt lat="45.67011" lon="4.37466">
        <ele>603</ele>
        <time>2017-03-12T13:38:52Z</time>
      </trkpt>
      <trkpt lat="45.66834" lon="4.37587">
        <ele>593</ele>
        <time>2017-03-12T13:40:52Z</time>
      </trkpt>
      <trkpt lat="45.66768" lon="4.37784">
        <ele>569</ele>
        <time>2017-03-12T13:42:52Z</time>
      </trkpt>
      <trkpt lat="45.66846" lon="4.37956">
        <ele>547</ele>
        <time>2017-03-12T13:44:52Z</time>
      </trkpt>
      <trkpt lat="45.66903" lon="4.3802">
        <ele>539</ele>
        <time>2017-03-12T13:46:52Z</time>
      </trkpt>
      <trkpt lat="45.66885" lon="4.38243">
        <ele>522</ele>
        <time>2017-03-12T13:48:52Z</time>
      </trkpt>
      <trkpt lat="45.66966" lon="4.38303">
        <ele>521</ele>
        <time>2017-03-12T13:50:52Z</time>
      </trkpt>
      <trkpt lat="45.66873" lon="4.38604">
        <ele>512</ele>
        <time>2017-03-12T13:52:52Z</time>
      </trkpt>
      <trkpt lat="45.66705" lon="4.39029">
        <ele>497</ele>
        <time>2017-03-12T13:54:52Z</time>
      </trkpt>
      <trkpt lat="45.66615" lon="4.3926">
        <ele>492</ele>
        <time>2017-03-12T13:56:52Z</time>
      </trkpt>
      <trkpt lat="45.66501" lon="4.39093">
        <ele>493</ele>
        <time>2017-03-12T13:58:52Z</time>
      </trkpt>
      <trkpt lat="45.66264" lon="4.39265">
        <ele>484</ele>
        <time>2017-03-12T14:00:52Z</time>
      </trkpt>
      <trkpt lat="45.66102" lon="4.392">
        <ele>492</ele>
        <time>2017-03-12T14:02:52Z</time>
      </trkpt>
      <trkpt lat="45.66079" lon="4.3908">
        <ele>495</ele>
        <time>2017-03-12T14:04:52Z</time>
      </trkpt>
      <trkpt lat="45.66004" lon="4.39196">
        <ele>511</ele>
        <time>2017-03-12T14:06:52Z</time>
      </trkpt>
      <trkpt lat="45.65932" lon="4.39247">
        <ele>523</ele>
        <time>2017-03-12T14:08:52Z</time>
      </trkpt>
      <trkpt lat="45.65887" lon="4.38891">
        <ele>501</ele>
        <time>2017-03-12T14:10:52Z</time>
      </trkpt>
      <trkpt lat="45.65968" lon="4.38831">
        <ele>495</ele>
        <time>2017-03-12T14:12:52Z</time>
      </trkpt>
      <trkpt lat="45.65872" lon="4.38741">
        <ele>506</ele>
        <time>2017-03-12T14:14:52Z</time>
      </trkpt>
      <trkpt lat="45.65746" lon="4.38565">
        <ele>519</ele>
        <time>2017-03-12T14:16:52Z</time>
      </trkpt>
      <trkpt lat="45.65683" lon="4.38316">
        <ele>528</ele>
        <time>2017-03-12T14:18:52Z</time>
      </trkpt>
      <trkpt lat="45.65854" lon="4.38462">
        <ele>501</ele>
        <time>2017-03-12T14:20:52Z</time>
      </trkpt>
      <trkpt lat="45.65929" lon="4.38419">
        <ele>493</ele>
        <time>2017-03-12T14:22:52Z</time>
      </trkpt>
      <trkpt lat="45.65992" lon="4.38235">
        <ele>498</ele>
        <time>2017-03-12T14:24:52Z</time>
      </trkpt>
      <trkpt lat="45.65911" lon="4.3802">
        <ele>503</ele>
        <time>2017-03-12T14:26:52Z</time>
      </trkpt>
      <trkpt lat="45.65776" lon="4.37853">
        <ele>507</ele>
        <time>2017-03-12T14:28:52Z</time>
      </trkpt>
      <trkpt lat="45.65755" lon="4.37702">
        <ele>511</ele>
        <time>2017-03-12T14:30:52Z</time>
      </trkpt>
      <trkpt lat="45.65854" lon="4.37518">
        <ele>524</ele>
        <time>2017-03-12T14:32:52Z</time>
      </trkpt>
      <trkpt lat="45.65725" lon="4.37333">
        <ele>527</ele>
        <time>2017-03-12T14:34:52Z</time>
      </trkpt>
      <trkpt lat="45.6571" lon="4.37428">
        <ele>520</ele>
        <time>2017-03-12T14:36:52Z</time>
      </trkpt>
      <trkpt lat="45.65617" lon="4.37432">
        <ele>518</ele>
        <time>2017-03-12T14:38:52Z</time>
      </trkpt>
      <trkpt lat="45.65581" lon="4.37501">
        <ele>520</ele>
        <time>2017-03-12T14:40:52Z</time>
      </trkpt>
      <trkpt lat="45.65521" lon="4.37505">
        <ele>533</ele>
        <time>2017-03-12T14:42:52Z</time>
      </trkpt>
      <trkpt lat="45.65503" lon="4.37569">
        <ele>541</ele>
        <time>2017-03-12T14:44:52Z</time>
      </trkpt>
      <trkpt lat="45.65446" lon="4.37496">
        <ele>548</ele>
        <time>2017-03-12T14:46:52Z</time>
      </trkpt>
      <trkpt lat="45.65395" lon="4.37578">
        <ele>561</ele>
        <time>2017-03-12T14:48:52Z</time>
      </trkpt>
      <trkpt lat="45.6526" lon="4.37604">
        <ele>565</ele>
        <time>2017-03-12T14:50:52Z</time>
      </trkpt>
      <trkpt lat="45.65281" lon="4.37707">
        <ele>566</ele>
        <time>2017-03-12T14:52:52Z</time>
      </trkpt>
      <trkpt lat="45.65212" lon="4.3772">
        <ele>560</ele>
        <time>2017-03-12T14:54:52Z</time>
      </trkpt>
      <trkpt lat="45.65029" lon="4.37707">
        <ele>537</ele>
        <time>2017-03-12T14:56:52Z</time>
      </trkpt>
      <trkpt lat="45.64981" lon="4.37793">
        <ele>532</ele>
        <time>2017-03-12T14:58:52Z</time>
      </trkpt>
      <trkpt lat="45.64945" lon="4.37694">
        <ele>525</ele>
        <time>2017-03-12T15:00:52Z</time>
      </trkpt>
      <trkpt lat="45.64864" lon="4.37604">
        <ele>527</ele>
        <time>2017-03-12T15:02:52Z</time>
      </trkpt>
      <trkpt lat="45.64717" lon="4.37325">
        <ele>534</ele>
        <time>2017-03-12T15:04:52Z</time>
      </trkpt>
      <trkpt lat="45.64594" lon="4.37527">
        <ele>561</ele>
        <time>2017-03-12T15:06:52Z</time>
      </trkpt>
      <trkpt lat="45.64576" lon="4.37647">
        <ele>565</ele>
        <time>2017-03-12T15:08:52Z</time>
      </trkpt>
      <trkpt lat="45.6442" lon="4.37604">
        <ele>569</ele>
        <time>2017-03-12T15:10:52Z</time>
      </trkpt>
      <trkpt lat="45.64339" lon="4.3784">
        <ele>564</ele>
        <time>2017-03-12T15:12:52Z</time>
      </trkpt>
      <trkpt lat="45.64333" lon="4.3805">
        <ele>566</ele>
        <time>2017-03-12T15:14:52Z</time>
      </trkpt>
      <trkpt lat="45.64204" lon="4.38162">
        <ele>575</ele>
        <time>2017-03-12T15:16:52Z</time>
      </trkpt>
      <trkpt lat="45.64297" lon="4.38338">
        <ele>583</ele>
        <time>2017-03-12T15:18:52Z</time>
      </trkpt>
      <trkpt lat="45.64114" lon="4.38325">
        <ele>593</ele>
        <time>2017-03-12T15:20:52Z</time>
      </trkpt>
      <trkpt lat="45.64093" lon="4.3826">
        <ele>590</ele>
        <time>2017-03-12T15:22:52Z</time>
      </trkpt>
      <trkpt lat="45.63958" lon="4.37999">
        <ele>596</ele>
        <time>2017-03-12T15:24:52Z</time>
      </trkpt>
      <trkpt lat="45.63841" lon="4.38591">
        <ele>611</ele>
        <time>2017-03-12T15:26:52Z</time>
      </trkpt>
    </trkseg>
  </trk>
</gpx>